Time;durP1;ratioP1;P1;durP2;ratioP2;P2;SDS_P1;SDS_P2;PMS_P1;PMS_P2;Temp;Humidity;BMP_temperature;BMP_pressure;BME280_temperature;BME280_humidity;BME280_pressure;Samples;Min_cycle;Max_cycle;Signal;HPM_P1;HPM_P2
2023/06/13 00:00:44;;;;;;;4.47;3.83;;;;;;;;;;10058070;29;20047;-64
2023/06/13 00:05:46;;;;;;;7.57;3.83;;;;;;;;;;10063666;28;20048;-65
2023/06/13 00:10:43;;;;;;;4.70;4.10;;;;;;;;;;10062861;29;20521;-65
2023/06/13 00:15:46;;;;;;;4.78;4.03;;;;;;;;;;10063922;28;20685;-64
2023/06/13 00:20:44;;;;;;;5.22;4.50;;;;;;;;;;10058497;29;20828;-64
2023/06/13 00:25:40;;;;;;;5.95;4.38;;;;;;;;;;10062269;29;20062;-65
2023/06/13 00:30:37;;;;;;;5.03;4.53;;;;;;;;;;10061028;29;20139;-66
2023/06/13 00:35:34;;;;;;;7.32;4.20;;;;;;;;;;10044318;29;20149;-64
2023/06/13 00:40:32;;;;;;;5.78;3.95;;;;;;;;;;10062666;29;20098;-65
2023/06/13 00:45:29;;;;;;;6.43;4.70;;;;;;;;;;10061132;29;20640;-64
2023/06/13 00:50:50;;;;;;;6.75;4.72;;;;;;;;;;10052470;28;20510;-64
2023/06/13 00:55:50;;;;;;;5.88;4.55;;;;;;;;;;10056889;28;20071;-65
2023/06/13 01:00:46;;;;;;;4.72;4.10;;;;;;;;;;10064097;28;20130;-64
2023/06/13 01:05:43;;;;;;;5.15;4.30;;;;;;;;;;10049212;29;20047;-64
2023/06/13 01:10:40;;;;;;;4.82;4.43;;;;;;;;;;10057711;29;20055;-64
2023/06/13 01:15:40;;;;;;;4.70;4.20;;;;;;;;;;10064715;28;20055;-64
2023/06/13 01:20:37;;;;;;;4.85;4.40;;;;;;;;;;10063748;29;20543;-64
2023/06/13 01:25:37;;;;;;;4.88;4.38;;;;;;;;;;10062554;29;20454;-65
2023/06/13 01:30:34;;;;;;;7.30;4.47;;;;;;;;;;10047523;29;20541;-65
2023/06/13 01:35:31;;;;;;;4.60;4.20;;;;;;;;;;10067168;29;20051;-64
2023/06/13 01:40:27;;;;;;;6.22;4.70;;;;;;;;;;10063456;29;20051;-66
2023/06/13 01:45:24;;;;;;;5.50;4.15;;;;;;;;;;10062742;29;20070;-66
2023/06/13 01:50:34;;;;;;;5.93;4.57;;;;;;;;;;10059849;29;20054;-66
2023/06/13 01:55:57;;;;;;;6.38;4.03;;;;;;;;;;10065883;28;20562;-67
2023/06/13 02:00:55;;;;;;;7.35;4.30;;;;;;;;;;10060246;29;20051;-67
2023/06/13 02:05:52;;;;;;;4.75;4.25;;;;;;;;;;10062628;28;20523;-67
2023/06/13 02:10:48;;;;;;;6.32;4.88;;;;;;;;;;10063436;29;20049;-66
2023/06/13 02:15:48;;;;;;;4.82;4.40;;;;;;;;;;10061604;28;20138;-64
2023/06/13 02:20:44;;;;;;;5.60;4.47;;;;;;;;;;10064528;28;20047;-65
2023/06/13 02:25:40;;;;;;;8.82;4.70;;;;;;;;;;10060990;28;20051;-65
2023/06/13 02:30:37;;;;;;;6.57;4.63;;;;;;;;;;10067197;29;20059;-65
2023/06/13 02:35:33;;;;;;;6.38;4.60;;;;;;;;;;10060753;29;20055;-65
2023/06/13 02:40:29;;;;;;;4.65;4.20;;;;;;;;;;10061841;28;20051;-65
2023/06/13 02:45:26;;;;;;;5.20;4.70;;;;;;;;;;10062283;29;20050;-66
2023/06/13 02:50:23;;;;;;;5.55;4.70;;;;;;;;;;10062827;29;20155;-67
2023/06/13 02:55:20;;;;;;;5.45;4.15;;;;;;;;;;10064452;29;20528;-67
2023/06/13 03:00:16;;;;;;;4.85;4.45;;;;;;;;;;10064374;29;20533;-67
2023/06/13 03:05:16;;;;;;;6.50;4.20;;;;;;;;;;10062107;29;20049;-65
2023/06/13 03:10:13;;;;;;;12.35;4.97;;;;;;;;;;10060760;29;20051;-66
2023/06/13 03:15:11;;;;;;;6.53;4.78;;;;;;;;;;10061735;29;20135;-65
2023/06/13 03:20:09;;;;;;;9.25;4.93;;;;;;;;;;10068700;29;20047;-66
2023/06/13 03:25:06;;;;;;;8.05;4.97;;;;;;;;;;10061891;29;20077;-66
2023/06/13 03:30:02;;;;;;;6.85;4.90;;;;;;;;;;10063114;29;20047;-65
2023/06/13 03:35:00;;;;;;;5.80;4.90;;;;;;;;;;10060433;28;20054;-68
2023/06/13 03:39:56;;;;;;;6.00;4.50;;;;;;;;;;10065147;29;20093;-67
2023/06/13 03:44:53;;;;;;;5.03;4.35;;;;;;;;;;10063050;29;20130;-68
2023/06/13 03:49:49;;;;;;;5.00;4.22;;;;;;;;;;10062964;29;20047;-68
2023/06/13 03:54:45;;;;;;;4.97;4.03;;;;;;;;;;10063476;28;20098;-68
2023/06/13 03:59:45;;;;;;;7.90;4.55;;;;;;;;;;10064633;28;20051;-69
2023/06/13 04:04:44;;;;;;;6.32;4.47;;;;;;;;;;10042145;28;20055;-69
2023/06/13 04:09:45;;;;;;;6.25;4.93;;;;;;;;;;10048707;29;20059;-69
2023/06/13 04:14:41;;;;;;;8.88;4.40;;;;;;;;;;10069483;29;20055;-69
2023/06/13 04:19:38;;;;;;;4.68;4.25;;;;;;;;;;10068514;29;20488;-69
2023/06/13 04:24:35;;;;;;;8.85;5.15;;;;;;;;;;10067888;29;20077;-69
2023/06/13 04:29:31;;;;;;;7.65;4.30;;;;;;;;;;10063920;29;20509;-69
2023/06/13 04:34:31;;;;;;;7.18;5.10;;;;;;;;;;10064298;29;20047;-69
2023/06/13 04:39:28;;;;;;;7.15;4.70;;;;;;;;;;10058196;29;20502;-69
2023/06/13 04:44:28;;;;;;;8.63;4.20;;;;;;;;;;10042943;29;20066;-70
2023/06/13 04:49:27;;;;;;;8.13;4.78;;;;;;;;;;10068151;28;20051;-69
2023/06/13 04:54:23;;;;;;;7.18;4.60;;;;;;;;;;10071895;29;20082;-70
2023/06/13 04:59:20;;;;;;;7.75;4.45;;;;;;;;;;10074795;29;20063;-69
2023/06/13 05:04:16;;;;;;;8.80;4.90;;;;;;;;;;10076285;29;20039;-70
2023/06/13 05:09:14;;;;;;;6.13;5.00;;;;;;;;;;10075263;29;20449;-70
2023/06/13 05:14:10;;;;;;;9.07;5.32;;;;;;;;;;10051951;29;20067;-68
2023/06/13 05:19:06;;;;;;;5.50;4.60;;;;;;;;;;10070127;29;20452;-68
2023/06/13 05:24:03;;;;;;;7.05;5.35;;;;;;;;;;10070183;29;20051;-68
2023/06/13 05:29:03;;;;;;;7.32;5.00;;;;;;;;;;10066083;29;20048;-68
2023/06/13 05:34:03;;;;;;;6.40;5.13;;;;;;;;;;10072512;29;20043;-68
2023/06/13 05:39:00;;;;;;;7.63;5.28;;;;;;;;;;10070666;28;20044;-68
2023/06/13 05:43:57;;;;;;;10.25;5.43;;;;;;;;;;10073667;28;20120;-68
2023/06/13 05:48:53;;;;;;;8.05;6.28;;;;;;;;;;10047903;29;20661;-68
2023/06/13 05:53:50;;;;;;;9.20;5.32;;;;;;;;;;10061617;29;20461;-70
2023/06/13 05:58:47;;;;;;;6.90;5.35;;;;;;;;;;10062911;28;20091;-68
2023/06/13 06:03:43;;;;;;;5.32;4.82;;;;;;;;;;10068667;29;20043;-68
2023/06/13 06:08:39;;;;;;;6.07;5.20;;;;;;;;;;10067429;29;20428;-68
2023/06/13 06:13:36;;;;;;;7.25;5.03;;;;;;;;;;10064327;29;20048;-68
2023/06/13 06:18:32;;;;;;;6.35;5.05;;;;;;;;;;10042634;29;20811;-68
2023/06/13 06:23:29;;;;;;;7.13;4.65;;;;;;;;;;10070354;29;20039;-68
2023/06/13 06:28:25;;;;;;;8.13;5.40;;;;;;;;;;10063420;29;20059;-66
2023/06/13 06:33:21;;;;;;;6.00;4.25;;;;;;;;;;10064457;29;20536;-68
2023/06/13 06:38:18;;;;;;;11.57;4.90;;;;;;;;;;10064057;29;20454;-67
2023/06/13 06:43:14;;;;;;;6.38;5.05;;;;;;;;;;10070531;29;20067;-67
2023/06/13 06:48:10;;;;;;;7.63;4.95;;;;;;;;;;10061803;29;20035;-67
2023/06/13 06:53:07;;;;;;;5.43;4.40;;;;;;;;;;10063356;29;20796;-67
2023/06/13 06:58:03;;;;;;;6.55;4.63;;;;;;;;;;10068944;29;20114;-67
2023/06/13 07:02:59;;;;;;;6.65;4.22;;;;;;;;;;10047123;29;20505;-67
2023/06/13 07:07:56;;;;;;;6.75;4.90;;;;;;;;;;10062836;29;20039;-67
2023/06/13 07:12:52;;;;;;;7.18;5.15;;;;;;;;;;10040660;29;20623;-67
2023/06/13 07:17:48;;;;;;;5.63;4.43;;;;;;;;;;10069301;29;20043;-67
2023/06/13 07:22:45;;;;;;;7.90;4.47;;;;;;;;;;10064190;29;20083;-67
2023/06/13 07:27:42;;;;;;;7.97;5.70;;;;;;;;;;10065443;29;20533;-67
2023/06/13 07:32:38;;;;;;;6.25;5.50;;;;;;;;;;10059146;29;20051;-69
2023/06/13 07:37:35;;;;;;;5.75;5.25;;;;;;;;;;10061300;28;20059;-69
2023/06/13 07:42:31;;;;;;;5.60;5.10;;;;;;;;;;10050199;29;20675;-67
2023/06/13 07:47:27;;;;;;;9.30;5.63;;;;;;;;;;10063415;29;20047;-68
2023/06/13 07:52:24;;;;;;;7.40;5.38;;;;;;;;;;10063523;29;20094;-69
2023/06/13 07:57:20;;;;;;;5.68;5.18;;;;;;;;;;10062606;29;20040;-67
2023/06/13 08:02:19;;;;;;;5.70;5.15;;;;;;;;;;10064517;29;20059;-67
2023/06/13 08:07:16;;;;;;;5.82;5.28;;;;;;;;;;10067490;28;20066;-67
2023/06/13 08:12:12;;;;;;;5.63;5.03;;;;;;;;;;10058486;28;20055;-67
2023/06/13 08:17:09;;;;;;;9.40;5.93;;;;;;;;;;10065478;29;20044;-67
2023/06/13 08:22:05;;;;;;;7.72;6.10;;;;;;;;;;10067332;28;20517;-67
2023/06/13 08:27:02;;;;;;;7.28;5.40;;;;;;;;;;10063041;29;20502;-68
2023/06/13 08:31:58;;;;;;;8.00;5.70;;;;;;;;;;10071744;29;20051;-67
2023/06/13 08:36:55;;;;;;;7.22;5.50;;;;;;;;;;10067938;29;20191;-67
2023/06/13 08:41:52;;;;;;;6.00;5.40;;;;;;;;;;10071109;29;20569;-68
2023/06/13 08:46:48;;;;;;;7.60;5.40;;;;;;;;;;10065431;29;20062;-70
2023/06/13 08:51:46;;;;;;;8.68;5.88;;;;;;;;;;10067659;29;20134;-69
2023/06/13 08:56:43;;;;;;;8.95;5.47;;;;;;;;;;10069120;29;20148;-67
2023/06/13 09:01:43;;;;;;;6.72;6.05;;;;;;;;;;10074450;29;20421;-67
2023/06/13 09:06:40;;;;;;;7.00;5.60;;;;;;;;;;10070976;29;20047;-68
2023/06/13 09:11:36;;;;;;;8.48;5.82;;;;;;;;;;10060691;29;20063;-68
2023/06/13 09:16:33;;;;;;;6.70;6.10;;;;;;;;;;10071942;29;20043;-67
2023/06/13 09:21:30;;;;;;;11.32;6.10;;;;;;;;;;10073041;29;20417;-68
2023/06/13 09:26:27;;;;;;;6.40;5.50;;;;;;;;;;10066179;29;20063;-68
2023/06/13 09:31:23;;;;;;;7.25;5.65;;;;;;;;;;10071471;29;20047;-68
2023/06/13 09:36:22;;;;;;;6.82;6.10;;;;;;;;;;10064406;28;20528;-68
2023/06/13 09:41:19;;;;;;;6.88;6.25;;;;;;;;;;10073607;29;20059;-68
2023/06/13 09:46:17;;;;;;;8.70;6.60;;;;;;;;;;10064808;29;20047;-68
2023/06/13 09:51:14;;;;;;;10.23;5.88;;;;;;;;;;10071948;29;20134;-68
2023/06/13 09:56:11;;;;;;;9.32;6.47;;;;;;;;;;10060607;29;20048;-68
2023/06/13 10:01:14;;;;;;;9.30;6.80;;;;;;;;;;10026988;29;20126;-68
2023/06/13 10:06:11;;;;;;;7.95;6.13;;;;;;;;;;10016901;29;20078;-70
2023/06/13 10:11:13;;;;;;;8.23;6.07;;;;;;;;;;10046955;29;20418;-67
2023/06/13 10:16:11;;;;;;;8.43;6.53;;;;;;;;;;10067030;29;20073;-68
2023/06/13 10:21:10;;;;;;;7.53;6.63;;;;;;;;;;10066947;29;20059;-67
2023/06/13 10:26:09;;;;;;;8.55;6.15;;;;;;;;;;10068765;29;20047;-67
2023/06/13 10:31:13;;;;;;;6.82;6.13;;;;;;;;;;10065312;29;20063;-67
2023/06/13 10:36:17;;;;;;;6.78;6.18;;;;;;;;;;10063144;29;20047;-68
2023/06/13 10:41:33;;;;;;;7.13;6.43;;;;;;;;;;10068311;28;20047;-68
2023/06/13 10:46:30;;;;;;;7.97;6.97;;;;;;;;;;10060525;28;20047;-68
2023/06/13 10:51:27;;;;;;;7.35;6.65;;;;;;;;;;10062053;29;20127;-68
2023/06/13 10:56:31;;;;;;;8.68;7.10;;;;;;;;;;10060714;29;20043;-68
2023/06/13 11:01:28;;;;;;;9.07;6.38;;;;;;;;;;10067428;29;20074;-68
2023/06/13 11:06:25;;;;;;;18.95;6.93;;;;;;;;;;10063472;28;20051;-68
2023/06/13 11:11:24;;;;;;;9.88;7.00;;;;;;;;;;10065736;29;20098;-67
2023/06/13 11:16:35;;;;;;;10.32;7.85;;;;;;;;;;10062447;29;20039;-67
2023/06/13 11:21:32;;;;;;;8.77;6.80;;;;;;;;;;10058053;29;20195;-68
2023/06/13 11:26:28;;;;;;;7.57;6.93;;;;;;;;;;10068879;28;20039;-68
2023/06/13 11:31:24;;;;;;;10.52;7.68;;;;;;;;;;10063556;28;20043;-68
2023/06/13 11:36:23;;;;;;;12.80;7.90;;;;;;;;;;10067198;29;20047;-68
2023/06/13 11:41:26;;;;;;;8.40;7.60;;;;;;;;;;10066640;28;20055;-68
2023/06/13 11:46:23;;;;;;;11.55;7.72;;;;;;;;;;10063483;29;20458;-67
2023/06/13 11:51:19;;;;;;;8.55;7.60;;;;;;;;;;10070274;28;20516;-68
2023/06/13 11:56:17;;;;;;;8.23;7.55;;;;;;;;;;10066309;28;20043;-68
2023/06/13 12:01:15;;;;;;;7.75;7.05;;;;;;;;;;10064977;28;20502;-68
2023/06/13 12:06:12;;;;;;;8.68;7.90;;;;;;;;;;10069904;29;20156;-68
2023/06/13 12:11:09;;;;;;;8.23;7.40;;;;;;;;;;10069879;29;20055;-68
2023/06/13 12:16:21;;;;;;;8.75;7.40;;;;;;;;;;10068278;28;20075;-68
2023/06/13 12:21:17;;;;;;;8.35;7.20;;;;;;;;;;10066140;29;20052;-68
2023/06/13 12:26:13;;;;;;;8.00;7.20;;;;;;;;;;10067814;29;20524;-68
2023/06/13 12:31:10;;;;;;;9.43;7.50;;;;;;;;;;10058265;29;20059;-68
2023/06/13 12:36:08;;;;;;;8.32;7.45;;;;;;;;;;10067811;28;20111;-68
2023/06/13 12:41:11;;;;;;;8.25;7.55;;;;;;;;;;10059425;28;20067;-68
2023/06/13 12:46:08;;;;;;;8.07;7.38;;;;;;;;;;10069972;29;20591;-68
2023/06/13 12:51:05;;;;;;;7.47;6.85;;;;;;;;;;10062732;28;20559;-68
2023/06/13 12:56:02;;;;;;;9.27;7.40;;;;;;;;;;10068704;29;20039;-68
2023/06/13 13:01:03;;;;;;;9.95;7.03;;;;;;;;;;10068121;29;20098;-68
2023/06/13 13:06:00;;;;;;;10.85;7.28;;;;;;;;;;10053031;29;20063;-68
2023/06/13 13:10:57;;;;;;;8.25;7.43;;;;;;;;;;10024536;28;20416;-68
2023/06/13 13:15:53;;;;;;;9.50;7.32;;;;;;;;;;10055292;28;20043;-68
2023/06/13 13:20:49;;;;;;;7.78;7.03;;;;;;;;;;10060371;28;20047;-68
2023/06/13 13:25:46;;;;;;;7.53;6.85;;;;;;;;;;10067573;28;20055;-68
2023/06/13 13:30:42;;;;;;;7.70;7.10;;;;;;;;;;10059930;28;20048;-68
2023/06/13 13:35:55;;;;;;;8.05;7.30;;;;;;;;;;10060701;28;20051;-68
2023/06/13 13:40:55;;;;;;;9.07;7.22;;;;;;;;;;10054731;28;20525;-68
2023/06/13 13:45:51;;;;;;;8.45;7.18;;;;;;;;;;10035151;29;20088;-68
2023/06/13 13:50:49;;;;;;;8.52;6.90;;;;;;;;;;10031537;28;20048;-68
2023/06/13 13:55:46;;;;;;;8.50;7.10;;;;;;;;;;10028475;29;20054;-68
2023/06/13 14:00:42;;;;;;;9.32;6.60;;;;;;;;;;10028578;29;20080;-68
2023/06/13 14:05:38;;;;;;;9.00;7.10;;;;;;;;;;10021577;29;20067;-68
2023/06/13 14:10:35;;;;;;;9.75;6.65;;;;;;;;;;10023316;29;20056;-68
2023/06/13 14:15:31;;;;;;;10.32;6.55;;;;;;;;;;10029424;29;20497;-68
2023/06/13 14:20:29;;;;;;;11.25;6.47;;;;;;;;;;10028429;29;20062;-68
2023/06/13 14:25:26;;;;;;;9.07;6.22;;;;;;;;;;10030040;29;20062;-68
2023/06/13 14:30:22;;;;;;;10.35;6.40;;;;;;;;;;10030094;29;20235;-68
2023/06/13 14:35:21;;;;;;;11.75;6.57;;;;;;;;;;10022834;29;20561;-68
2023/06/13 14:40:17;;;;;;;9.98;6.00;;;;;;;;;;10031965;29;20050;-68
2023/06/13 14:45:16;;;;;;;8.55;6.25;;;;;;;;;;10016549;29;20051;-69
2023/06/13 14:50:13;;;;;;;10.40;6.65;;;;;;;;;;10061558;28;20540;-68
2023/06/13 14:55:10;;;;;;;7.28;6.10;;;;;;;;;;10065051;29;20386;-68
2023/06/13 15:00:07;;;;;;;7.78;5.88;;;;;;;;;;10068637;29;20043;-68
2023/06/13 15:05:04;;;;;;;7.82;6.20;;;;;;;;;;10069670;29;20407;-68
2023/06/13 15:10:00;;;;;;;7.75;5.90;;;;;;;;;;10068921;29;20482;-67
2023/06/13 15:14:56;;;;;;;7.75;6.47;;;;;;;;;;10055876;29;20059;-67
2023/06/13 15:19:53;;;;;;;6.95;6.18;;;;;;;;;;10055294;28;20075;-68
2023/06/13 15:24:49;;;;;;;8.75;6.68;;;;;;;;;;10071398;28;20046;-67
2023/06/13 15:29:46;;;;;;;8.40;6.20;;;;;;;;;;10062710;28;20082;-67
2023/06/13 15:34:42;;;;;;;6.68;6.07;;;;;;;;;;10060606;28;20043;-67
2023/06/13 15:39:39;;;;;;;7.93;6.65;;;;;;;;;;10066300;28;20497;-68
2023/06/13 15:44:35;;;;;;;12.05;6.57;;;;;;;;;;10068721;29;20047;-67
2023/06/13 15:49:31;;;;;;;9.02;6.75;;;;;;;;;;10064467;28;20063;-68
2023/06/13 15:54:28;;;;;;;10.15;6.82;;;;;;;;;;10063856;29;20099;-67
2023/06/13 15:59:24;;;;;;;8.38;6.63;;;;;;;;;;10068665;29;20047;-68
2023/06/13 16:04:21;;;;;;;8.88;6.57;;;;;;;;;;10060866;29;20051;-67
2023/06/13 16:09:17;;;;;;;9.55;6.25;;;;;;;;;;10067725;29;20040;-68
2023/06/13 16:14:14;;;;;;;7.05;6.35;;;;;;;;;;10063380;29;20094;-68
2023/06/13 16:19:10;;;;;;;10.30;6.53;;;;;;;;;;10062084;29;20102;-67
2023/06/13 16:24:07;;;;;;;13.30;7.15;;;;;;;;;;10064884;28;20057;-67
2023/06/13 16:29:04;;;;;;;10.07;6.40;;;;;;;;;;10063003;28;20058;-67
2023/06/13 16:34:00;;;;;;;9.10;5.60;;;;;;;;;;10064042;29;20071;-66
2023/06/13 16:38:57;;;;;;;9.80;6.07;;;;;;;;;;10061716;28;20522;-67
2023/06/13 16:43:54;;;;;;;7.13;6.30;;;;;;;;;;10066348;28;20081;-66
2023/06/13 16:48:50;;;;;;;8.07;6.30;;;;;;;;;;10070343;28;20055;-66
2023/06/13 16:53:46;;;;;;;8.05;6.53;;;;;;;;;;10066107;28;20047;-67
2023/06/13 16:58:43;;;;;;;9.27;6.30;;;;;;;;;;10070553;29;20047;-68
2023/06/13 17:03:39;;;;;;;8.13;6.20;;;;;;;;;;10068223;29;20047;-66
2023/06/13 17:08:36;;;;;;;6.72;6.13;;;;;;;;;;10067308;29;20080;-66
2023/06/13 17:13:32;;;;;;;6.43;5.82;;;;;;;;;;10074132;29;20410;-66
2023/06/13 17:18:28;;;;;;;7.15;6.45;;;;;;;;;;10071420;29;20134;-66
2023/06/13 17:23:25;;;;;;;9.95;5.97;;;;;;;;;;10075941;28;20043;-67
2023/06/13 17:28:24;;;;;;;10.18;6.53;;;;;;;;;;10075696;28;20043;-67
2023/06/13 17:33:21;;;;;;;6.63;5.90;;;;;;;;;;10068250;28;20486;-67
2023/06/13 17:38:30;;;;;;;8.57;6.50;;;;;;;;;;10068516;29;20122;-67
2023/06/13 17:43:26;;;;;;;6.30;5.55;;;;;;;;;;10069138;29;20054;-66
2023/06/13 17:48:23;;;;;;;6.20;5.60;;;;;;;;;;10074080;29;20110;-66
2023/06/13 17:53:19;;;;;;;5.85;5.22;;;;;;;;;;10041258;29;20039;-67
2023/06/13 17:58:16;;;;;;;9.70;5.82;;;;;;;;;;10066667;28;20528;-66
2023/06/13 18:03:12;;;;;;;7.15;5.20;;;;;;;;;;10066784;28;20055;-67
2023/06/13 18:08:09;;;;;;;7.22;6.00;;;;;;;;;;10068678;29;20400;-67
2023/06/13 18:13:06;;;;;;;7.53;5.63;;;;;;;;;;10073007;29;20054;-67
2023/06/13 18:18:02;;;;;;;10.13;5.75;;;;;;;;;;10069076;29;20074;-67
2023/06/13 18:22:59;;;;;;;13.65;5.88;;;;;;;;;;10064867;29;20109;-67
2023/06/13 18:27:55;;;;;;;7.57;5.07;;;;;;;;;;10067841;29;20051;-67
2023/06/13 18:32:53;;;;;;;5.07;4.57;;;;;;;;;;10070584;29;20047;-67
2023/06/13 18:37:49;;;;;;;5.95;4.38;;;;;;;;;;10067281;29;20047;-68
2023/06/13 18:42:46;;;;;;;6.72;5.07;;;;;;;;;;10070615;29;20146;-67
2023/06/13 18:47:46;;;;;;;8.68;5.47;;;;;;;;;;10065438;29;20786;-67
2023/06/13 18:52:47;;;;;;;7.03;5.35;;;;;;;;;;10050408;29;20047;-67
2023/06/13 18:57:43;;;;;;;8.88;4.28;;;;;;;;;;10067758;29;20051;-67
2023/06/13 19:02:40;;;;;;;7.35;4.38;;;;;;;;;;10062983;29;20047;-67
2023/06/13 19:07:37;;;;;;;5.55;4.55;;;;;;;;;;10070426;28;20127;-66
2023/06/13 19:12:34;;;;;;;5.35;4.18;;;;;;;;;;10070921;29;20138;-67
2023/06/13 19:17:31;;;;;;;6.13;4.60;;;;;;;;;;10067558;29;20127;-67
2023/06/13 19:22:28;;;;;;;7.10;5.18;;;;;;;;;;10064260;29;20097;-66
2023/06/13 19:27:25;;;;;;;6.78;4.25;;;;;;;;;;10071235;29;20934;-66
2023/06/13 19:32:21;;;;;;;7.22;4.68;;;;;;;;;;10065594;29;20062;-67
2023/06/13 19:37:18;;;;;;;5.88;4.30;;;;;;;;;;10061558;29;20051;-66
2023/06/13 19:42:15;;;;;;;6.88;4.45;;;;;;;;;;10045705;29;20070;-66
2023/06/13 19:47:11;;;;;;;6.07;4.32;;;;;;;;;;10027847;29;20040;-68
2023/06/13 19:52:12;;;;;;;5.63;4.13;;;;;;;;;;10026149;29;20103;-64
2023/06/13 19:57:08;;;;;;;5.88;3.88;;;;;;;;;;10000175;29;20043;-66
2023/06/13 20:02:06;;;;;;;5.80;4.50;;;;;;;;;;10014753;29;20067;-64
2023/06/13 20:07:02;;;;;;;7.25;4.75;;;;;;;;;;10028751;29;20533;-65
2023/06/13 20:11:59;;;;;;;6.75;4.68;;;;;;;;;;10024909;29;20075;-64
2023/06/13 20:16:59;;;;;;;6.05;4.63;;;;;;;;;;10031092;29;20043;-65
2023/06/13 20:21:56;;;;;;;9.57;5.50;;;;;;;;;;10014601;29;20063;-64
2023/06/13 20:26:52;;;;;;;6.75;5.25;;;;;;;;;;10051727;29;20070;-64
2023/06/13 20:31:48;;;;;;;6.50;4.93;;;;;;;;;;10070770;29;20043;-64
2023/06/13 20:36:45;;;;;;;6.75;5.20;;;;;;;;;;10069691;29;20066;-63
2023/06/13 20:41:41;;;;;;;8.00;5.43;;;;;;;;;;10068729;28;20077;-64
2023/06/13 20:46:39;;;;;;;6.15;4.82;;;;;;;;;;10071609;29;20051;-64
2023/06/13 20:51:37;;;;;;;5.93;5.35;;;;;;;;;;10071330;29;20079;-63
2023/06/13 20:56:33;;;;;;;6.82;4.80;;;;;;;;;;10075947;29;20094;-64
2023/06/13 21:01:32;;;;;;;7.43;4.72;;;;;;;;;;10071127;29;20039;-64
2023/06/13 21:06:29;;;;;;;6.85;4.53;;;;;;;;;;10055387;28;20105;-64
2023/06/13 21:11:26;;;;;;;7.78;5.00;;;;;;;;;;10072086;28;20055;-63
2023/06/13 21:16:24;;;;;;;9.20;5.30;;;;;;;;;;10075952;29;20134;-63
2023/06/13 21:21:21;;;;;;;6.72;5.03;;;;;;;;;;10072427;29;20051;-65
2023/06/13 21:26:17;;;;;;;6.88;5.07;;;;;;;;;;10073653;29;20039;-65
2023/06/13 21:31:14;;;;;;;5.85;5.05;;;;;;;;;;10056019;28;20055;-66
2023/06/13 21:36:11;;;;;;;7.18;4.80;;;;;;;;;;10073981;29;20048;-66
2023/06/13 21:41:07;;;;;;;8.52;4.75;;;;;;;;;;10071530;29;20512;-65
2023/06/13 21:46:03;;;;;;;8.88;5.60;;;;;;;;;;10067934;29;20649;-65
2023/06/13 21:51:00;;;;;;;5.32;4.72;;;;;;;;;;10071466;29;20553;-65
2023/06/13 21:55:56;;;;;;;7.53;5.28;;;;;;;;;;10072977;29;20050;-65
2023/06/13 22:00:52;;;;;;;5.03;4.43;;;;;;;;;;10070477;29;20043;-66
2023/06/13 22:05:49;;;;;;;8.98;4.25;;;;;;;;;;10063466;29;20043;-65
2023/06/13 22:10:46;;;;;;;5.05;4.63;;;;;;;;;;10066784;29;20118;-66
2023/06/13 22:15:45;;;;;;;11.88;5.13;;;;;;;;;;10068922;29;20043;-65
2023/06/13 22:20:41;;;;;;;5.43;4.93;;;;;;;;;;10069779;28;20043;-66
2023/06/13 22:25:38;;;;;;;6.90;4.78;;;;;;;;;;10056009;29;20048;-65
2023/06/13 22:30:35;;;;;;;6.57;5.00;;;;;;;;;;10065690;29;20391;-66
2023/06/13 22:35:31;;;;;;;6.15;4.68;;;;;;;;;;10069379;29;20048;-66
2023/06/13 22:40:28;;;;;;;7.82;5.45;;;;;;;;;;10070559;28;20043;-64
2023/06/13 22:45:24;;;;;;;6.75;5.05;;;;;;;;;;10063782;28;20098;-64
2023/06/13 22:50:20;;;;;;;7.75;4.93;;;;;;;;;;10068944;29;20094;-66
2023/06/13 22:55:17;;;;;;;8.35;4.70;;;;;;;;;;10065561;29;20058;-66
2023/06/13 23:00:13;;;;;;;7.57;5.07;;;;;;;;;;10061822;29;20082;-64
2023/06/13 23:05:11;;;;;;;6.75;4.75;;;;;;;;;;10063954;29;20111;-64
2023/06/13 23:10:07;;;;;;;6.18;5.22;;;;;;;;;;10070691;29;20078;-64
2023/06/13 23:15:06;;;;;;;6.53;5.15;;;;;;;;;;10070468;29;20047;-64
2023/06/13 23:20:05;;;;;;;5.95;4.93;;;;;;;;;;10070115;29;20501;-64
2023/06/13 23:25:03;;;;;;;9.20;5.30;;;;;;;;;;10061197;29;20502;-64
2023/06/13 23:30:04;;;;;;;7.60;5.82;;;;;;;;;;10059815;29;20452;-65
2023/06/13 23:35:08;;;;;;;7.80;5.00;;;;;;;;;;10063112;29;20054;-64
2023/06/13 23:40:06;;;;;;;8.02;5.00;;;;;;;;;;10065820;28;20565;-64
2023/06/13 23:45:03;;;;;;;7.45;5.60;;;;;;;;;;10064070;29;20106;-64
2023/06/13 23:49:59;;;;;;;9.27;6.55;;;;;;;;;;10064169;28;20122;-65
2023/06/13 23:54:56;;;;;;;10.13;5.60;;;;;;;;;;10067864;28;20516;-64
2023/06/13 23:59:52;;;;;;;5.80;5.00;;;;;;;;;;10054113;29;20101;-64
